createdAt,value
2018-10-03T00:00:43.489Z,2.50
2018-10-03T00:05:46.998Z,1.57
2018-10-03T00:10:50.549Z,1.30
2018-10-03T00:15:54.088Z,2.03
2018-10-03T00:20:57.663Z,1.20
2018-10-03T00:26:01.038Z,2.23
2018-10-03T00:31:04.488Z,1.37
2018-10-03T00:36:07.999Z,1.23
2018-10-03T00:41:11.370Z,1.70
2018-10-03T00:46:14.767Z,2.00
2018-10-03T00:51:18.291Z,1.13
2018-10-03T00:56:21.763Z,1.80
2018-10-03T01:01:25.464Z,2.20
2018-10-03T01:06:28.921Z,1.50
2018-10-03T01:11:32.317Z,2.80
2018-10-03T01:16:35.813Z,1.80
2018-10-03T01:21:39.396Z,2.23
2018-10-03T01:26:42.894Z,2.33
2018-10-03T01:31:46.398Z,1.67
2018-10-03T01:36:49.755Z,2.33
2018-10-03T01:41:53.335Z,1.17
2018-10-03T01:46:56.881Z,1.83
2018-10-03T01:52:00.230Z,1.97
2018-10-03T01:57:03.711Z,2.40
2018-10-03T02:02:07.221Z,1.50
2018-10-03T02:07:10.811Z,1.60
2018-10-03T02:12:14.201Z,1.70
2018-10-03T02:17:17.579Z,1.80
2018-10-03T02:22:21.061Z,2.13
2018-10-03T02:27:24.617Z,2.27
2018-10-03T02:32:27.962Z,2.13
2018-10-03T02:37:31.451Z,2.27
2018-10-03T02:42:34.912Z,2.43
2018-10-03T02:47:38.334Z,2.00
2018-10-03T02:52:41.958Z,1.67
2018-10-03T02:57:45.654Z,1.80
2018-10-03T03:02:49.128Z,1.80
2018-10-03T03:07:52.635Z,1.37
2018-10-03T03:12:56.103Z,1.40
2018-10-03T03:17:59.533Z,2.10
2018-10-03T03:23:03.016Z,1.67
2018-10-03T03:28:06.379Z,2.25
2018-10-03T03:33:09.802Z,1.30
2018-10-03T03:38:13.205Z,1.83
2018-10-03T03:43:16.678Z,1.93
2018-10-03T03:48:20.082Z,1.97
2018-10-03T03:53:23.709Z,1.90
2018-10-03T03:58:27.182Z,1.70
2018-10-03T04:03:30.569Z,2.07
2018-10-03T04:08:34.057Z,0.90
2018-10-03T04:13:37.500Z,2.10
2018-10-03T04:18:40.978Z,2.07
2018-10-03T04:23:44.493Z,0.97
2018-10-03T04:28:48.155Z,1.97
2018-10-03T04:33:51.734Z,2.30
2018-10-03T04:38:55.478Z,2.43
2018-10-03T04:43:59.012Z,2.17
2018-10-03T04:49:02.555Z,2.70
2018-10-03T04:54:05.948Z,2.27
2018-10-03T04:59:09.317Z,2.33
2018-10-03T05:04:12.813Z,3.00
2018-10-03T05:09:16.404Z,2.30
2018-10-03T05:14:19.754Z,2.43
2018-10-03T05:19:23.210Z,2.73
2018-10-03T05:24:26.687Z,2.50
2018-10-03T05:29:30.265Z,2.27
2018-10-03T05:34:33.669Z,2.03
2018-10-03T05:39:37.187Z,2.47
2018-10-03T05:44:40.589Z,1.70
2018-10-03T05:49:44.030Z,2.77
2018-10-03T05:54:47.489Z,2.33
2018-10-03T05:59:51.038Z,2.33
2018-10-03T06:04:54.525Z,2.73
2018-10-03T06:09:58.014Z,2.73
2018-10-03T06:15:01.893Z,1.87
2018-10-03T06:20:06.801Z,2.20
2018-10-03T06:25:10.536Z,2.42
2018-10-03T06:30:14.580Z,2.43
2018-10-03T06:35:18.188Z,3.03
2018-10-03T06:40:21.743Z,3.03
2018-10-03T06:45:25.246Z,2.93
2018-10-03T06:50:28.874Z,2.37
2018-10-03T06:55:32.557Z,2.50
2018-10-03T07:00:36.246Z,2.67
2018-10-03T07:05:39.972Z,2.93
2018-10-03T07:10:43.822Z,3.37
2018-10-03T07:15:47.349Z,3.37
2018-10-03T07:20:50.850Z,3.33
2018-10-03T07:25:54.613Z,1.87
2018-10-03T07:30:58.093Z,2.35
2018-10-03T07:36:01.541Z,2.93
2018-10-03T07:41:04.954Z,2.70
2018-10-03T07:46:08.423Z,3.00
2018-10-03T07:51:11.846Z,2.20
2018-10-03T07:56:15.319Z,2.50
2018-10-03T08:01:18.822Z,1.93
2018-10-03T08:06:22.418Z,3.20
2018-10-03T08:11:25.988Z,2.73
2018-10-03T08:16:29.541Z,3.43
2018-10-03T08:21:32.923Z,2.83
2018-10-03T08:26:36.565Z,2.10
2018-10-03T08:31:40.079Z,2.33
2018-10-03T08:36:43.601Z,1.83
2018-10-03T08:41:47.096Z,1.67
2018-10-03T08:46:50.604Z,1.67
2018-10-03T08:51:54.276Z,1.60
2018-10-03T08:56:57.768Z,1.43
2018-10-03T09:02:02.451Z,1.70
2018-10-03T09:07:05.990Z,1.67
2018-10-03T09:12:10.569Z,1.17
2018-10-03T09:17:14.001Z,1.20
2018-10-03T09:22:17.365Z,1.53
2018-10-03T09:27:20.802Z,1.80
2018-10-03T09:32:24.534Z,1.83
2018-10-03T09:37:28.006Z,2.00
2018-10-03T09:42:31.340Z,1.93
2018-10-03T09:47:34.774Z,2.17
2018-10-03T09:52:38.482Z,2.80
2018-10-03T09:57:41.759Z,2.67
2018-10-03T10:02:45.109Z,4.13
2018-10-03T10:07:48.626Z,4.10
2018-10-03T10:12:51.924Z,3.97
2018-10-03T10:17:55.357Z,5.20
2018-10-03T10:22:58.780Z,3.40
2018-10-03T10:28:02.080Z,4.80
2018-10-03T10:33:05.437Z,4.77
2018-10-03T10:38:08.792Z,3.30
2018-10-03T10:43:12.309Z,3.33
2018-10-03T10:48:15.938Z,3.63
2018-10-03T10:53:19.536Z,2.93
2018-10-03T10:58:22.869Z,2.50
2018-10-03T11:03:26.337Z,2.40
2018-10-03T11:08:29.655Z,4.23
2018-10-03T11:13:32.968Z,3.52
2018-10-03T11:18:36.348Z,3.70
2018-10-03T11:23:39.793Z,2.67
2018-10-03T11:28:43.101Z,3.40
2018-10-03T11:33:46.678Z,3.40
2018-10-03T11:38:50.270Z,3.20
2018-10-03T11:43:54.099Z,3.13
2018-10-03T11:48:57.582Z,2.10
2018-10-03T11:54:01.182Z,3.57
2018-10-03T11:59:04.825Z,3.03
2018-10-03T12:04:08.184Z,3.63
2018-10-03T12:09:12.727Z,3.23
2018-10-03T12:14:16.210Z,5.77
2018-10-03T12:19:19.570Z,3.73
2018-10-03T12:24:22.938Z,4.23
2018-10-03T12:29:26.534Z,3.97
2018-10-03T12:34:29.879Z,2.80
2018-10-03T12:39:33.233Z,1.90
2018-10-03T12:44:36.572Z,3.17
2018-10-03T12:49:40.122Z,2.40
2018-10-03T12:54:43.560Z,2.63
2018-10-03T12:59:47.221Z,1.53
2018-10-03T13:04:50.747Z,2.87
2018-10-03T13:09:55.145Z,2.10
2018-10-03T13:14:58.557Z,2.40
2018-10-03T13:20:01.919Z,2.07
2018-10-03T13:25:05.756Z,2.60
2018-10-03T13:30:09.461Z,2.93
2018-10-03T13:35:12.992Z,2.53
2018-10-03T13:40:16.756Z,3.23
2018-10-03T13:45:20.225Z,2.13
2018-10-03T13:50:23.811Z,1.77
2018-10-03T13:55:27.162Z,3.03
2018-10-03T14:00:30.663Z,2.30
2018-10-03T14:05:34.079Z,2.60
2018-10-03T14:10:37.593Z,2.95
2018-10-03T14:15:41.041Z,2.40
2018-10-03T14:20:44.448Z,2.30
2018-10-03T14:25:47.760Z,3.00
2018-10-03T14:30:51.149Z,2.13
2018-10-03T14:35:54.579Z,2.57
2018-10-03T14:40:58.589Z,2.70
2018-10-03T14:46:02.432Z,2.77
2018-10-03T14:51:06.015Z,2.97
2018-10-03T14:56:09.306Z,2.20
2018-10-03T15:01:12.764Z,2.90
2018-10-03T15:06:16.249Z,2.20
2018-10-03T15:11:19.672Z,2.93
2018-10-03T15:16:23.144Z,2.80
2018-10-03T15:21:26.617Z,3.00
2018-10-03T15:26:30.021Z,3.67
2018-10-03T15:31:33.713Z,3.70
2018-10-03T15:36:37.050Z,2.63
2018-10-03T15:41:40.465Z,2.60
2018-10-03T15:46:43.915Z,2.50
2018-10-03T15:51:47.453Z,2.27
2018-10-03T15:56:50.888Z,3.57
2018-10-03T16:01:54.270Z,3.33
2018-10-03T16:06:57.744Z,2.57
2018-10-03T16:12:01.130Z,3.37
2018-10-03T16:17:04.522Z,2.80
2018-10-03T16:22:07.926Z,2.27
2018-10-03T16:27:11.342Z,3.00
2018-10-03T16:32:15.791Z,2.20
2018-10-03T16:37:19.287Z,2.40
2018-10-03T16:42:22.891Z,2.27
2018-10-03T16:47:26.195Z,2.50
2018-10-03T16:52:29.660Z,2.17
2018-10-03T16:57:32.999Z,2.63
2018-10-03T17:02:36.561Z,2.90
2018-10-03T17:07:40.063Z,2.00
2018-10-03T17:12:43.509Z,1.80
2018-10-03T17:17:47.082Z,2.53
2018-10-03T17:22:50.543Z,2.53
2018-10-03T17:27:53.868Z,2.80
2018-10-03T17:32:57.402Z,3.57
2018-10-03T17:38:00.774Z,3.00
2018-10-03T17:43:04.367Z,2.10
2018-10-03T17:48:07.845Z,2.47
2018-10-03T17:53:11.231Z,2.47
2018-10-03T17:58:14.605Z,1.77
2018-10-03T18:03:17.942Z,2.37
2018-10-03T18:08:21.692Z,3.47
2018-10-03T18:13:25.075Z,2.50
2018-10-03T18:18:28.470Z,2.30
2018-10-03T18:23:31.977Z,2.97
2018-10-03T18:28:35.855Z,2.03
2018-10-03T18:33:39.713Z,2.63
2018-10-03T18:38:43.436Z,3.30
2018-10-03T18:43:46.910Z,2.60
2018-10-03T18:48:50.430Z,2.73
2018-10-03T18:53:53.847Z,2.93
2018-10-03T18:58:57.264Z,2.27
2018-10-03T19:04:01.404Z,3.20
2018-10-03T19:09:07.410Z,2.53
2018-10-03T19:14:11.600Z,2.73
2018-10-03T19:19:15.428Z,2.77
2018-10-03T19:24:19.329Z,3.00
2018-10-03T19:29:23.208Z,2.57
2018-10-03T19:34:27.306Z,2.90
2018-10-03T19:39:31.031Z,3.07
2018-10-03T19:44:34.385Z,3.00
2018-10-03T19:49:38.063Z,3.90
2018-10-03T19:54:41.813Z,3.00
2018-10-03T19:59:45.847Z,3.17
2018-10-03T20:04:49.645Z,4.33
2018-10-03T20:09:53.332Z,4.03
2018-10-03T20:14:57.606Z,4.67
2018-10-03T20:20:01.440Z,6.90
2018-10-03T20:25:05.258Z,5.42
2018-10-03T20:30:08.806Z,6.37
2018-10-03T20:35:12.569Z,5.30
2018-10-03T20:40:16.374Z,4.97
2018-10-03T20:45:20.127Z,4.30
2018-10-03T20:50:23.537Z,3.87
2018-10-03T20:55:27.307Z,3.80
2018-10-03T21:00:30.868Z,3.97
2018-10-03T21:05:34.159Z,3.53
2018-10-03T21:10:38.031Z,2.93
2018-10-03T21:15:42.335Z,3.40
2018-10-03T21:20:45.968Z,3.23
2018-10-03T21:25:49.757Z,3.87
2018-10-03T21:30:53.322Z,3.20
2018-10-03T21:35:57.094Z,2.53
2018-10-03T21:41:00.493Z,3.33
2018-10-03T21:46:04.253Z,3.03
2018-10-03T21:51:07.573Z,3.30
2018-10-03T21:56:10.994Z,3.45
2018-10-03T22:01:14.295Z,3.83
2018-10-03T22:06:17.587Z,4.57
2018-10-03T22:11:21.161Z,4.30
2018-10-03T22:16:24.569Z,4.10
2018-10-03T22:21:27.926Z,2.50
2018-10-03T22:26:31.217Z,3.20
2018-10-03T22:31:34.536Z,2.40
2018-10-03T22:36:37.857Z,4.33
2018-10-03T22:41:41.322Z,3.73
2018-10-03T22:46:44.631Z,5.70
2018-10-03T22:51:47.965Z,5.17
2018-10-03T22:56:51.763Z,3.80
2018-10-03T23:01:55.294Z,2.87
2018-10-03T23:06:58.635Z,3.60
2018-10-03T23:12:02.077Z,3.27
2018-10-03T23:17:05.445Z,2.53
2018-10-03T23:22:08.785Z,3.03
2018-10-03T23:27:12.208Z,2.60
2018-10-03T23:32:15.641Z,3.17
2018-10-03T23:37:19.296Z,2.57
2018-10-03T23:42:22.669Z,3.30
2018-10-03T23:47:26.042Z,4.20
2018-10-03T23:52:29.675Z,2.83
2018-10-03T23:57:33.161Z,3.53
